createdAt,value
2015-12-21T00:00:23.085Z,10.9
2015-12-21T00:01:23.025Z,10.9
2015-12-21T00:02:22.972Z,11
2015-12-21T00:03:22.912Z,11
2015-12-21T00:04:22.852Z,11
2015-12-21T00:05:22.809Z,11
2015-12-21T00:06:22.748Z,11
2015-12-21T00:07:22.704Z,11
2015-12-21T00:08:22.644Z,11
2015-12-21T00:09:22.600Z,11
2015-12-21T00:10:22.540Z,11
2015-12-21T00:11:22.481Z,11
2015-12-21T00:12:22.437Z,11
2015-12-21T00:13:22.377Z,11
2015-12-21T00:14:22.317Z,11.1
2015-12-21T00:15:22.273Z,11.1
2015-12-21T00:16:22.229Z,11
2015-12-21T00:17:22.170Z,11
2015-12-21T00:18:22.110Z,11
2015-12-21T00:19:22.050Z,11
2015-12-21T00:20:22.006Z,11
2015-12-21T00:21:21.946Z,11
2015-12-21T00:22:21.902Z,11
2015-12-21T00:23:21.842Z,11
2015-12-21T00:24:21.795Z,11
2015-12-21T00:25:21.751Z,11
2015-12-21T00:26:21.692Z,11
2015-12-21T00:27:21.647Z,11
2015-12-21T00:28:21.587Z,11
2015-12-21T00:29:21.528Z,11
2015-12-21T00:30:21.468Z,11
2015-12-21T00:31:21.424Z,10.9
2015-12-21T00:32:21.364Z,11
2015-12-21T00:33:21.320Z,11.1
2015-12-21T00:34:21.261Z,11.1
2015-12-21T00:35:21.200Z,11.1
2015-12-21T00:36:21.156Z,11.1
2015-12-21T00:37:21.097Z,11.1
2015-12-21T00:38:21.037Z,11.1
2015-12-21T00:39:20.992Z,11.1
2015-12-21T00:40:20.949Z,11.1
2015-12-21T00:41:20.889Z,11
2015-12-21T00:42:20.830Z,11.1
2015-12-21T00:43:20.785Z,11
2015-12-21T00:44:20.725Z,11
2015-12-21T00:45:20.665Z,11
2015-12-21T00:46:20.622Z,11.1
2015-12-21T00:47:20.561Z,11.1
2015-12-21T00:48:20.517Z,11.1
2015-12-21T00:49:20.458Z,11.1
2015-12-21T00:50:20.414Z,11.1
2015-12-21T00:51:20.355Z,11.1
2015-12-21T00:52:20.294Z,11.1
2015-12-21T00:53:20.250Z,11.1
2015-12-21T00:54:20.190Z,11.1
2015-12-21T00:55:20.147Z,11.1
2015-12-21T00:56:20.086Z,11
2015-12-21T00:57:20.027Z,11
2015-12-21T00:58:19.983Z,11
2015-12-21T00:59:19.923Z,11.1
2015-12-21T01:00:19.880Z,11.1
2015-12-21T01:01:19.819Z,11.1
2015-12-21T01:02:19.757Z,11
2015-12-21T01:03:19.713Z,11.1
2015-12-21T01:04:19.652Z,11.1
2015-12-21T01:05:19.608Z,11
2015-12-21T01:06:19.549Z,11
2015-12-21T01:07:19.505Z,11
2015-12-21T01:08:19.445Z,11.1
2015-12-21T01:09:19.386Z,11.1
2015-12-21T01:10:19.341Z,11
2015-12-21T01:11:19.282Z,11
2015-12-21T01:12:19.238Z,11
2015-12-21T01:13:19.177Z,11
2015-12-21T01:14:19.133Z,11
2015-12-21T01:15:19.074Z,11
2015-12-21T01:16:19.029Z,11
2015-12-21T01:17:18.970Z,11
2015-12-21T01:18:18.926Z,11
2015-12-21T01:19:18.866Z,11.1
2015-12-21T01:20:18.806Z,11
2015-12-21T01:21:18.762Z,11
2015-12-21T01:22:18.703Z,11
2015-12-21T01:23:18.658Z,11
2015-12-21T01:24:18.599Z,11
2015-12-21T01:25:18.539Z,11
2015-12-21T01:26:18.494Z,11
2015-12-21T01:27:18.435Z,11
2015-12-21T01:28:18.390Z,11
2015-12-21T01:29:18.332Z,11
2015-12-21T01:30:18.287Z,11
2015-12-21T01:31:18.227Z,11.1
2015-12-21T01:32:18.183Z,11
2015-12-21T01:33:18.124Z,11
2015-12-21T01:34:18.064Z,11.1
2015-12-21T01:35:18.019Z,11
2015-12-21T01:36:17.976Z,11
2015-12-21T01:37:17.915Z,11
2015-12-21T01:38:17.856Z,11.1
2015-12-21T01:39:17.797Z,11
2015-12-21T01:40:17.752Z,11
2015-12-21T01:41:17.707Z,11
2015-12-21T01:42:17.629Z,11.1
2015-12-21T01:43:17.585Z,11
2015-12-21T01:44:17.526Z,11
2015-12-21T01:45:17.481Z,11
2015-12-21T01:46:17.421Z,11
2015-12-21T01:47:17.362Z,11
2015-12-21T01:48:17.317Z,11
2015-12-21T01:49:17.259Z,11
2015-12-21T01:50:17.214Z,11
2015-12-21T01:51:17.154Z,11
2015-12-21T01:52:17.110Z,11
2015-12-21T01:53:17.051Z,10.9
2015-12-21T01:54:16.991Z,11
2015-12-21T01:55:16.946Z,10.9
2015-12-21T01:56:16.887Z,10.9
2015-12-21T01:57:16.843Z,10.9
2015-12-21T01:58:16.784Z,10.9
2015-12-21T01:59:16.740Z,10.9
2015-12-21T02:00:16.679Z,10.9
2015-12-21T02:01:16.635Z,10.9
2015-12-21T02:02:16.575Z,10.9
2015-12-21T02:03:16.515Z,10.9
2015-12-21T02:04:16.471Z,10.9
2015-12-21T02:05:16.412Z,10.9
2015-12-21T02:06:16.368Z,10.9
2015-12-21T02:07:16.308Z,10.9
2015-12-21T02:08:16.248Z,10.9
2015-12-21T02:09:16.204Z,10.9
2015-12-21T02:10:16.145Z,10.9
2015-12-21T02:11:16.100Z,10.9
2015-12-21T02:12:16.040Z,10.9
2015-12-21T02:13:15.996Z,10.9
2015-12-21T02:14:15.937Z,10.9
2015-12-21T02:15:15.893Z,10.9
2015-12-21T02:16:15.833Z,10.9
2015-12-21T02:17:15.789Z,10.9
2015-12-21T02:18:15.729Z,10.9
2015-12-21T02:19:15.685Z,10.9
2015-12-21T02:20:15.623Z,10.9
2015-12-21T02:21:15.579Z,10.9
2015-12-21T02:22:15.534Z,10.9
2015-12-21T02:23:15.459Z,10.9
2015-12-21T02:24:15.414Z,10.9
2015-12-21T02:25:15.355Z,10.8
2015-12-21T02:26:15.311Z,10.8
2015-12-21T02:27:15.250Z,10.8
2015-12-21T02:28:15.206Z,10.8
2015-12-21T02:29:15.147Z,10.8
2015-12-21T02:30:15.103Z,10.8
2015-12-21T02:31:15.042Z,10.8
2015-12-21T02:32:15.000Z,10.8
2015-12-21T02:33:14.939Z,10.8
2015-12-21T02:34:14.895Z,10.8
2015-12-21T02:35:14.836Z,10.8
2015-12-21T02:36:14.791Z,10.8
2015-12-21T02:37:14.731Z,10.8
2015-12-21T02:38:14.703Z,10.8
2015-12-21T02:39:14.627Z,10.7
2015-12-21T02:40:14.600Z,10.7
2015-12-21T02:41:14.524Z,10.7
2015-12-21T02:42:14.480Z,10.7
2015-12-21T02:43:14.436Z,10.7
2015-12-21T02:44:14.375Z,10.7
2015-12-21T02:45:14.331Z,10.7
2015-12-21T02:46:14.272Z,10.7
2015-12-21T02:47:14.227Z,10.7
2015-12-21T02:48:14.169Z,10.6
2015-12-21T02:49:14.108Z,10.6
2015-12-21T02:50:14.064Z,10.7
2015-12-21T02:51:14.005Z,10.6
2015-12-21T02:52:13.960Z,10.7
2015-12-21T02:53:13.916Z,10.7
2015-12-21T02:54:13.872Z,10.7
2015-12-21T02:55:13.812Z,10.7
2015-12-21T02:56:13.752Z,10.6
2015-12-21T02:57:13.709Z,10.7
2015-12-21T02:58:13.650Z,10.6
2015-12-21T02:59:13.620Z,10.6
2015-12-21T03:00:13.545Z,10.6
2015-12-21T03:01:13.501Z,10.6
2015-12-21T03:02:13.442Z,10.6
2015-12-21T03:03:13.395Z,10.6
2015-12-21T03:04:13.336Z,10.6
2015-12-21T03:05:13.291Z,10.6
2015-12-21T03:06:13.231Z,10.6
2015-12-21T03:07:13.187Z,10.6
2015-12-21T03:08:13.127Z,10.6
2015-12-21T03:09:13.084Z,10.5
2015-12-21T03:10:13.023Z,10.5
2015-12-21T03:11:13.026Z,10.5
2015-12-21T03:12:12.920Z,10.5
2015-12-21T03:13:12.875Z,10.5
2015-12-21T03:14:12.831Z,10.5
2015-12-21T03:15:12.772Z,10.5
2015-12-21T03:16:12.712Z,10.5
2015-12-21T03:17:12.668Z,10.5
2015-12-21T03:18:12.624Z,10.5
2015-12-21T03:19:12.564Z,10.5
2015-12-21T03:20:12.551Z,10.5
2015-12-21T03:21:12.475Z,10.5
2015-12-21T03:22:12.417Z,10.5
2015-12-21T03:23:12.356Z,10.5
2015-12-21T03:24:12.312Z,10.4
2015-12-21T03:25:12.252Z,10.4
2015-12-21T03:26:12.208Z,10.3
2015-12-21T03:27:12.164Z,10.3
2015-12-21T03:28:12.105Z,10.3
2015-12-21T03:29:12.045Z,10.4
2015-12-21T03:30:12.000Z,10.4
2015-12-21T03:31:11.941Z,10.4
2015-12-21T03:32:11.897Z,10.3
2015-12-21T03:33:11.837Z,10.4
2015-12-21T03:34:11.793Z,10.4
2015-12-21T03:35:11.749Z,10.4
2015-12-21T03:36:11.689Z,10.4
2015-12-21T03:37:11.630Z,10.3
2015-12-21T03:38:11.585Z,10.4
2015-12-21T03:39:11.542Z,10.4
2015-12-21T03:40:11.482Z,10.4
2015-12-21T03:41:11.420Z,10.4
2015-12-21T03:42:11.374Z,10.4
2015-12-21T03:43:11.330Z,10.4
2015-12-21T03:44:11.271Z,10.3
2015-12-21T03:45:11.227Z,10.4
2015-12-21T03:46:11.166Z,10.4
2015-12-21T03:47:11.123Z,10.4
2015-12-21T03:48:11.064Z,10.4
2015-12-21T03:49:11.003Z,10.4
2015-12-21T03:50:10.960Z,10.5
2015-12-21T03:51:10.915Z,10.4
2015-12-21T03:52:10.856Z,10.4
2015-12-21T03:53:10.811Z,10.3
2015-12-21T03:54:10.751Z,10.4
2015-12-21T03:55:10.708Z,10.4
2015-12-21T03:56:10.647Z,10.4
2015-12-21T03:57:10.604Z,10.4
2015-12-21T03:58:10.544Z,10.3
2015-12-21T03:59:10.485Z,10.3
2015-12-21T04:00:10.440Z,10.4
2015-12-21T04:01:10.381Z,10.4
2015-12-21T04:02:10.353Z,10.3
2015-12-21T04:03:10.277Z,10.4
2015-12-21T04:04:10.234Z,10.4
2015-12-21T04:05:10.173Z,10.4
2015-12-21T04:06:10.129Z,10.4
2015-12-21T04:07:10.086Z,10.4
2015-12-21T04:08:10.026Z,10.4
2015-12-21T04:09:09.966Z,10.5
2015-12-21T04:10:09.922Z,10.5
2015-12-21T04:11:09.877Z,10.5
2015-12-21T04:12:09.818Z,10.5
2015-12-21T04:13:09.774Z,10.5
2015-12-21T04:14:09.714Z,10.5
2015-12-21T04:15:09.655Z,10.6
2015-12-21T04:16:09.611Z,10.6
2015-12-21T04:17:09.550Z,10.6
2015-12-21T04:18:09.506Z,10.6
2015-12-21T04:19:09.447Z,10.6
2015-12-21T04:20:09.402Z,10.6
2015-12-21T04:21:09.339Z,10.6
2015-12-21T04:22:09.296Z,10.6
2015-12-21T04:23:09.236Z,10.6
2015-12-21T04:24:09.192Z,10.6
2015-12-21T04:25:09.133Z,10.6
2015-12-21T04:26:09.073Z,10.6
2015-12-21T04:27:09.028Z,10.6
2015-12-21T04:28:08.969Z,10.6
2015-12-21T04:29:08.925Z,10.6
2015-12-21T04:30:08.864Z,10.6
2015-12-21T04:31:08.821Z,10.6
2015-12-21T04:32:08.761Z,10.6
2015-12-21T04:33:08.717Z,10.6
2015-12-21T04:34:08.658Z,10.6
2015-12-21T04:35:08.597Z,10.6
2015-12-21T04:36:08.553Z,10.6
2015-12-21T04:37:08.493Z,10.6
2015-12-21T04:38:08.449Z,10.6
2015-12-21T04:39:08.390Z,10.6
2015-12-21T04:40:08.346Z,10.6
2015-12-21T04:41:08.286Z,10.6
2015-12-21T04:42:08.241Z,10.6
2015-12-21T04:43:08.182Z,10.6
2015-12-21T04:44:08.138Z,10.5
2015-12-21T04:45:08.078Z,10.5
2015-12-21T04:46:08.018Z,10.5
2015-12-21T04:47:07.975Z,10.5
2015-12-21T04:48:07.914Z,10.5
2015-12-21T04:49:07.871Z,10.5
2015-12-21T04:50:07.810Z,10.4
2015-12-21T04:51:07.767Z,10.5
2015-12-21T04:52:07.707Z,10.5
2015-12-21T04:53:07.663Z,10.5
2015-12-21T04:54:07.603Z,10.5
2015-12-21T04:56:08.108Z,10.4
2015-12-21T04:57:07.986Z,10.4
2015-12-21T04:58:07.927Z,10.4
2015-12-21T05:04:21.943Z,10.4
2015-12-21T05:05:21.899Z,10.4
2015-12-21T05:06:21.839Z,10.5
2015-12-21T05:07:21.779Z,10.4
2015-12-21T05:08:21.735Z,10.5
2015-12-21T05:09:21.673Z,10.5
2015-12-21T05:10:21.629Z,10.5
2015-12-21T05:11:21.585Z,10.5
2015-12-21T05:12:21.525Z,10.5
2015-12-21T05:13:21.465Z,10.5
2015-12-21T05:14:21.420Z,10.4
2015-12-21T05:15:21.360Z,10.5
2015-12-21T05:16:21.317Z,10.5
2015-12-21T05:17:21.272Z,10.5
2015-12-21T05:18:21.213Z,10.5
2015-12-21T05:19:21.154Z,10.5
2015-12-21T05:20:21.109Z,10.4
2015-12-21T05:21:21.049Z,10.4
2015-12-21T05:22:21.004Z,10.4
2015-12-21T05:23:20.945Z,10.4
2015-12-21T05:24:20.901Z,10.4
2015-12-21T05:25:20.842Z,10.4
2015-12-21T05:26:20.798Z,10.4
2015-12-21T05:27:20.753Z,10.4
2015-12-21T05:28:20.693Z,10.4
2015-12-21T05:29:20.649Z,10.4
2015-12-21T05:30:20.590Z,10.4
2015-12-21T05:31:20.546Z,10.4
2015-12-21T05:32:20.486Z,10.4
2015-12-21T05:33:20.441Z,10.3
2015-12-21T05:34:20.382Z,10.4
2015-12-21T05:35:20.322Z,10.3
2015-12-21T05:36:20.278Z,10.3
2015-12-21T05:37:20.218Z,10.4
2015-12-21T05:38:20.173Z,10.4
2015-12-21T05:39:20.114Z,10.4
2015-12-21T05:40:20.070Z,10.3
2015-12-21T05:41:20.011Z,10.3
2015-12-21T05:42:19.967Z,10.3
2015-12-21T05:43:19.906Z,10.3
2015-12-21T05:44:19.862Z,10.3
2015-12-21T05:45:19.803Z,10.3
2015-12-21T05:46:19.758Z,10.3
2015-12-21T05:47:19.715Z,10.3
2015-12-21T05:48:19.686Z,10.3
2015-12-21T05:49:19.626Z,10.3
2015-12-21T05:50:19.550Z,10.3
2015-12-21T05:51:19.491Z,10.3
2015-12-21T05:52:19.447Z,10.3
2015-12-21T05:53:19.400Z,10.3
2015-12-21T05:54:19.340Z,10.3
2015-12-21T05:55:19.311Z,10.3
2015-12-21T05:56:19.237Z,10.3
2015-12-21T05:57:19.192Z,10.3
2015-12-21T05:58:19.148Z,10.3
2015-12-21T05:59:19.088Z,10.3
2015-12-21T06:00:19.029Z,10.3
2015-12-21T06:01:18.991Z,10.3
2015-12-21T06:02:18.933Z,10.3
2015-12-21T06:03:18.872Z,10.3
2015-12-21T06:04:18.813Z,10.3
2015-12-21T06:05:18.769Z,10.3
2015-12-21T06:06:18.725Z,10.3
2015-12-21T06:07:18.665Z,10.3
2015-12-21T06:08:18.610Z,10.2
2015-12-21T06:09:18.565Z,10.2
2015-12-21T06:10:18.521Z,10.2
2015-12-21T06:11:18.462Z,10.1
2015-12-21T06:12:18.402Z,10.1
2015-12-21T06:13:18.374Z,10.1
2015-12-21T06:14:18.313Z,10
2015-12-21T06:15:18.254Z,10
2015-12-21T06:16:18.209Z,10.1
2015-12-21T06:17:18.150Z,10.1
2015-12-21T06:18:18.106Z,10.2
2015-12-21T06:19:18.046Z,10.2
2015-12-21T06:20:17.986Z,10.2
2015-12-21T06:21:17.943Z,10.1
2015-12-21T06:22:17.882Z,10
2015-12-21T06:23:17.838Z,10
2015-12-21T06:24:17.795Z,10
2015-12-21T06:25:17.734Z,10
2015-12-21T06:26:17.675Z,9.9
2015-12-21T06:27:17.631Z,10
2015-12-21T06:28:17.571Z,10
2015-12-21T06:29:17.527Z,10
2015-12-21T06:30:17.465Z,10
2015-12-21T06:31:17.421Z,10
2015-12-21T06:32:17.360Z,10
2015-12-21T06:33:17.317Z,9.9
2015-12-21T06:34:17.272Z,9.9
2015-12-21T06:35:17.212Z,9.8
2015-12-21T06:36:17.153Z,9.9
2015-12-21T06:37:17.108Z,9.9
2015-12-21T06:38:17.049Z,9.9
2015-12-21T06:39:17.004Z,9.9
2015-12-21T06:40:16.944Z,9.9
2015-12-21T06:41:16.901Z,9.9
2015-12-21T06:42:16.842Z,10
2015-12-21T06:43:16.797Z,9.9
2015-12-21T06:44:16.737Z,10
2015-12-21T06:45:16.693Z,10
2015-12-21T06:46:16.634Z,10
2015-12-21T06:47:16.589Z,10
2015-12-21T06:48:16.529Z,10
2015-12-21T06:49:16.485Z,10
2015-12-21T06:50:16.425Z,10
2015-12-21T06:51:16.366Z,10.1
2015-12-21T06:52:16.322Z,10.1
2015-12-21T06:53:16.278Z,10.1
2015-12-21T06:54:16.217Z,10.1
2015-12-21T06:55:16.158Z,10.1
2015-12-21T06:56:16.114Z,10.1
2015-12-21T06:57:16.070Z,10.1
2015-12-21T06:58:16.010Z,10.1
2015-12-21T06:59:15.967Z,10.1
2015-12-21T07:00:15.906Z,10
2015-12-21T07:01:15.846Z,10
2015-12-21T07:02:15.802Z,10.1
2015-12-21T07:03:15.742Z,10
2015-12-21T07:04:15.698Z,10.1
2015-12-21T07:05:15.639Z,10
2015-12-21T07:06:15.594Z,10
2015-12-21T07:07:15.533Z,10
2015-12-21T07:08:15.479Z,10
2015-12-21T07:09:15.423Z,10.1
2015-12-21T07:10:15.352Z,10
2015-12-21T07:11:15.282Z,10
2015-12-21T07:12:15.235Z,10
2015-12-21T07:13:15.165Z,10
2015-12-21T07:14:15.118Z,10
2015-12-21T07:15:15.054Z,10
2015-12-21T07:16:14.990Z,10
2015-12-21T07:17:14.943Z,10
2015-12-21T07:18:14.895Z,10
2015-12-21T07:19:14.834Z,10
2015-12-21T07:20:14.774Z,10.1
2015-12-21T07:21:14.759Z,10
2015-12-21T07:22:14.667Z,10
2015-12-21T07:23:14.622Z,10
2015-12-21T07:24:14.562Z,10
2015-12-21T07:25:14.517Z,10
2015-12-21T07:26:14.458Z,10
2015-12-21T07:27:14.413Z,10
2015-12-21T07:28:14.352Z,10
2015-12-21T07:29:14.293Z,10
2015-12-21T07:30:14.248Z,10
2015-12-21T07:31:14.204Z,10
2015-12-21T07:32:14.144Z,10
2015-12-21T07:33:14.100Z,10
2015-12-21T07:34:14.040Z,10
2015-12-21T07:35:13.995Z,10.1
2015-12-21T07:36:13.936Z,10.1
2015-12-21T07:37:13.892Z,10
2015-12-21T07:38:13.831Z,10.1
2015-12-21T07:39:13.772Z,10.1
2015-12-21T07:40:13.728Z,10
2015-12-21T07:41:13.684Z,10
2015-12-21T07:42:13.655Z,9.9
2015-12-21T07:43:13.580Z,10
2015-12-21T07:44:13.536Z,10
2015-12-21T07:45:13.475Z,10
2015-12-21T07:46:13.416Z,10
2015-12-21T07:47:13.372Z,10
2015-12-21T07:48:13.313Z,10
2015-12-21T07:49:13.253Z,10
2015-12-21T07:50:13.209Z,10
2015-12-21T07:51:13.147Z,10
2015-12-21T07:52:13.103Z,10
2015-12-21T07:53:13.058Z,10
2015-12-21T07:54:12.998Z,10
2015-12-21T07:55:12.955Z,9.9
2015-12-21T07:56:12.894Z,10
2015-12-21T07:57:12.850Z,9.9
2015-12-21T07:58:12.790Z,9.8
2015-12-21T07:59:12.730Z,9.8
2015-12-21T08:00:12.686Z,9.9
2015-12-21T08:01:12.627Z,10
2015-12-21T08:02:12.582Z,9.9
2015-12-21T08:03:12.523Z,10
2015-12-21T08:04:12.479Z,9.9
2015-12-21T08:05:12.419Z,9.9
2015-12-21T08:06:12.374Z,9.9
2015-12-21T08:07:12.315Z,9.9
2015-12-21T08:08:12.271Z,10
2015-12-21T08:09:12.211Z,10
2015-12-21T08:10:12.167Z,10
2015-12-21T08:11:12.107Z,10
2015-12-21T08:12:12.063Z,10
2015-12-21T08:13:12.004Z,10
2015-12-21T08:14:11.959Z,10
2015-12-21T08:15:11.900Z,10
2015-12-21T08:16:11.855Z,10
2015-12-21T08:17:11.797Z,10
2015-12-21T08:18:11.752Z,10
2015-12-21T08:19:11.692Z,10
2015-12-21T08:20:11.641Z,10
2015-12-21T08:21:11.596Z,10.1
2015-12-21T08:22:11.536Z,10
2015-12-21T08:23:11.492Z,10.1
2015-12-21T08:24:11.432Z,10.1
2015-12-21T08:25:11.388Z,10.1
2015-12-21T08:26:11.329Z,10.1
2015-12-21T08:27:11.269Z,10.1
2015-12-21T08:28:11.225Z,10.1
2015-12-21T08:29:11.180Z,10.1
2015-12-21T08:30:11.121Z,10.1
2015-12-21T08:31:11.058Z,10.1
2015-12-21T08:32:11.013Z,10.1
2015-12-21T08:33:10.954Z,10.2
2015-12-21T08:34:10.910Z,10.3
2015-12-21T08:35:10.866Z,10.2
2015-12-21T08:36:10.807Z,10.2
2015-12-21T08:37:10.746Z,10.2
2015-12-21T08:38:10.702Z,10.2
2015-12-21T08:39:10.643Z,10.2
2015-12-21T08:40:10.598Z,10.2
2015-12-21T08:41:10.554Z,10.3
2015-12-21T08:42:10.479Z,10.3
2015-12-21T08:43:10.435Z,10.3
2015-12-21T08:44:10.375Z,10.2
2015-12-21T08:45:10.331Z,10.2
2015-12-21T08:46:10.271Z,10.2
2015-12-21T08:47:10.227Z,10.2
2015-12-21T08:48:10.168Z,10.2
2015-12-21T08:49:10.124Z,10.2
2015-12-21T08:50:12.094Z,10.1
2015-12-21T08:51:10.012Z,10.1
2015-12-21T08:52:10.015Z,10.1
2015-12-21T08:53:16.551Z,10.1
2015-12-21T08:54:09.917Z,10.1
2015-12-21T08:55:09.817Z,10.1
2015-12-21T08:56:09.773Z,10.1
2015-12-21T08:57:09.697Z,10.1
2015-12-21T08:58:09.653Z,10.1
2015-12-21T08:59:09.593Z,10.1
2015-12-21T09:00:09.548Z,10.2
2015-12-21T09:01:09.505Z,10.1
2015-12-21T09:02:09.437Z,10.1
2015-12-21T09:03:09.377Z,10.1
2015-12-21T09:04:09.333Z,10.1
2015-12-21T09:05:09.273Z,10.1
2015-12-21T09:06:09.229Z,10.1
2015-12-21T09:07:09.185Z,10.1
2015-12-21T09:08:09.125Z,10.1
2015-12-21T09:09:09.066Z,10.1
2015-12-21T09:10:09.021Z,10.1
2015-12-21T09:11:08.962Z,10.1
2015-12-21T09:12:08.917Z,10.2
2015-12-21T09:13:08.886Z,10.1
2015-12-21T09:14:08.810Z,10.1
2015-12-21T09:15:08.751Z,10.2
2015-12-21T09:16:08.706Z,10.1
2015-12-21T09:17:08.646Z,10.1
2015-12-21T09:18:08.587Z,10.2
2015-12-21T09:19:08.543Z,10.2
2015-12-21T09:20:08.482Z,10.3
2015-12-21T09:21:08.439Z,10.2
2015-12-21T09:22:08.379Z,10.2
2015-12-21T09:23:08.336Z,10.2
2015-12-21T09:24:08.276Z,10.3
2015-12-21T09:25:08.232Z,10.3
2015-12-21T09:26:08.172Z,10.3
2015-12-21T09:27:08.112Z,10.3
2015-12-21T09:28:08.068Z,10.3
2015-12-21T09:29:08.008Z,10.3
2015-12-21T09:30:07.964Z,10.3
2015-12-21T09:31:07.904Z,10.3
2015-12-21T09:32:07.844Z,10.3
2015-12-21T09:33:07.801Z,10.3
2015-12-21T09:34:07.757Z,10.3
2015-12-21T09:35:07.696Z,10.4
2015-12-21T09:36:07.637Z,10.3
2015-12-21T09:37:07.593Z,10.3
2015-12-21T09:38:07.533Z,10.3
2015-12-21T09:39:07.488Z,10.3
2015-12-21T09:40:07.429Z,10.4
2015-12-21T09:41:07.369Z,10.4
2015-12-21T09:42:07.326Z,10.4
2015-12-21T09:43:07.312Z,10.4
2015-12-21T09:44:07.222Z,10.4
2015-12-21T09:45:07.163Z,10.4
2015-12-21T09:46:07.118Z,10.4
2015-12-21T09:47:07.057Z,10.4
2015-12-21T09:48:07.013Z,10.4
2015-12-21T09:49:06.970Z,10.4
2015-12-21T09:50:06.891Z,10.4
2015-12-21T09:51:06.863Z,10.4
2015-12-21T09:52:06.788Z,10.4
2015-12-21T09:53:06.744Z,10.4
2015-12-21T09:54:06.699Z,10.4
2015-12-21T09:55:06.640Z,10.4
2015-12-21T09:56:06.580Z,10.4
2015-12-21T09:57:06.535Z,10.4
2015-12-21T09:58:06.476Z,10.4
2015-12-21T09:59:06.416Z,10.4
2015-12-21T10:00:06.356Z,10.4
2015-12-21T10:01:06.313Z,10.4
2015-12-21T10:02:06.269Z,10.4
2015-12-21T10:03:06.209Z,10.4
2015-12-21T10:04:06.149Z,10.4
2015-12-21T10:05:06.105Z,10.5
2015-12-21T10:06:06.046Z,10.5
2015-12-21T10:07:06.001Z,10.5
2015-12-21T10:08:05.941Z,10.5
2015-12-21T10:09:05.890Z,10.5
2015-12-21T10:10:05.845Z,10.6
2015-12-21T10:11:05.785Z,10.6
2015-12-21T10:12:05.726Z,10.6
2015-12-21T10:13:05.682Z,10.5
2015-12-21T10:14:05.622Z,10.5
2015-12-21T10:15:05.578Z,10.5
2015-12-21T10:16:05.518Z,10.5
2015-12-21T10:17:05.474Z,10.4
2015-12-21T10:18:05.415Z,10.4
2015-12-21T10:19:05.371Z,10.5
2015-12-21T10:20:05.310Z,10.5
2015-12-21T10:21:05.251Z,10.5
2015-12-21T10:22:05.206Z,10.5
2015-12-21T10:23:05.162Z,10.5
2015-12-21T10:24:05.103Z,10.5
2015-12-21T10:25:05.059Z,10.5
2015-12-21T10:26:04.996Z,10.5
2015-12-21T10:27:04.937Z,10.5
2015-12-21T10:28:04.893Z,10.5
2015-12-21T10:29:04.832Z,10.6
2015-12-21T10:30:04.773Z,10.6
2015-12-21T10:31:04.728Z,10.6
2015-12-21T10:32:04.668Z,10.6
2015-12-21T10:33:04.625Z,10.6
2015-12-21T10:34:04.564Z,10.5
2015-12-21T10:35:04.505Z,10.5
2015-12-21T10:36:04.461Z,10.5
2015-12-21T10:37:04.417Z,10.5
2015-12-21T10:38:04.357Z,10.6
2015-12-21T10:39:04.297Z,10.6
2015-12-21T10:40:04.238Z,10.7
2015-12-21T10:41:04.193Z,10.7
2015-12-21T10:42:04.133Z,10.8
2015-12-21T10:43:04.090Z,10.8
2015-12-21T10:44:04.030Z,10.8
2015-12-21T10:45:03.970Z,10.7
2015-12-21T10:46:03.926Z,10.7
2015-12-21T10:47:03.867Z,10.8
2015-12-21T10:48:03.822Z,10.8
2015-12-21T10:49:03.778Z,10.8
2015-12-21T10:50:03.703Z,10.8
2015-12-21T10:51:03.659Z,10.8
2015-12-21T10:52:03.599Z,10.8
2015-12-21T10:53:03.555Z,10.8
2015-12-21T10:54:03.495Z,10.8
2015-12-21T10:55:03.436Z,10.8
2015-12-21T10:56:03.376Z,10.8
2015-12-21T10:57:03.331Z,10.8
2015-12-21T10:58:03.272Z,10.8
2015-12-21T10:59:03.227Z,10.8
2015-12-21T11:00:03.168Z,10.8
2015-12-21T11:01:03.108Z,10.8
2015-12-21T11:02:03.064Z,10.8
2015-12-21T11:03:03.003Z,10.8
2015-12-21T11:04:02.961Z,10.8
2015-12-21T11:05:02.900Z,10.8
2015-12-21T11:06:02.853Z,10.8
2015-12-21T11:07:02.794Z,10.8
2015-12-21T11:08:02.734Z,10.8
2015-12-21T11:09:02.690Z,10.8
2015-12-21T11:10:02.630Z,10.9
2015-12-21T11:11:02.570Z,10.9
2015-12-21T11:12:02.525Z,10.9
2015-12-21T11:13:02.467Z,10.9
2015-12-21T11:14:02.422Z,10.9
2015-12-21T11:15:02.363Z,10.8
2015-12-21T11:16:02.303Z,10.9
2015-12-21T11:17:02.258Z,10.9
2015-12-21T11:18:02.200Z,11.1
2015-12-21T11:19:02.140Z,11.3
2015-12-21T11:20:02.111Z,11.2
2015-12-21T11:21:02.035Z,11.2
2015-12-21T11:22:01.992Z,11.1
2015-12-21T11:23:01.931Z,11
2015-12-21T11:24:01.888Z,11.1
2015-12-21T11:25:01.828Z,11.4
2015-12-21T11:26:01.768Z,12.2
2015-12-21T11:27:01.725Z,13.1
2015-12-21T11:28:01.664Z,13.7
2015-12-21T11:29:01.620Z,13.6
2015-12-21T11:30:01.560Z,13.1
2015-12-21T11:31:01.516Z,12.6
2015-12-21T11:32:01.457Z,12.3
2015-12-21T11:33:01.413Z,12.1
2015-12-21T11:34:01.353Z,11.9
2015-12-21T11:35:01.308Z,11.9
2015-12-21T11:36:01.249Z,11.9
2015-12-21T11:37:01.189Z,11.9
2015-12-21T11:38:01.145Z,12
2015-12-21T11:39:01.085Z,12.1
2015-12-21T11:40:01.041Z,12.3
2015-12-21T11:41:00.981Z,13.2
2015-12-21T11:42:00.937Z,14.3
2015-12-21T11:43:00.874Z,15.5
2015-12-21T11:44:00.830Z,16
2015-12-21T11:45:00.771Z,17.2
2015-12-21T11:46:00.727Z,17.2
2015-12-21T11:47:00.682Z,17.2
2015-12-21T11:48:00.638Z,16.9
2015-12-21T11:49:00.579Z,16.6
2015-12-21T11:50:00.535Z,17.2
2015-12-21T11:51:00.491Z,17.9
2015-12-21T11:52:00.430Z,19.1
2015-12-21T11:53:00.402Z,18.9
2015-12-21T11:54:00.342Z,19.5
2015-12-21T11:55:00.298Z,20.1
2015-12-21T11:56:00.285Z,19.2
2015-12-21T11:57:00.226Z,18.5
2015-12-21T11:58:00.166Z,17.7
2015-12-21T11:59:00.122Z,17.2
2015-12-21T12:00:00.063Z,15.8
2015-12-21T12:01:00.038Z,14.9
2015-12-21T12:01:59.986Z,14
2015-12-21T12:02:59.911Z,13.6
2015-12-21T12:03:59.866Z,13
2015-12-21T12:04:59.806Z,13.5
2015-12-21T12:05:59.762Z,14.1
2015-12-21T12:06:59.703Z,14.7
2015-12-21T12:07:59.659Z,14.7
2015-12-21T12:08:59.598Z,14.8
2015-12-21T12:09:59.555Z,15
2015-12-21T12:10:59.495Z,15.9
2015-12-21T12:11:59.450Z,17
2015-12-21T12:12:59.406Z,16.6
2015-12-21T12:13:59.347Z,16.2
2015-12-21T12:14:59.303Z,15
2015-12-21T12:15:59.242Z,14.9
2015-12-21T12:16:59.199Z,14.3
2015-12-21T12:17:59.155Z,15.2
2015-12-21T12:18:59.094Z,16.1
2015-12-21T12:19:59.051Z,16.6
2015-12-21T12:20:59.007Z,16.7
2015-12-21T12:21:58.945Z,16
2015-12-21T12:22:58.900Z,16.3
2015-12-21T12:23:58.855Z,15.8
2015-12-21T12:24:58.796Z,15.6
2015-12-21T12:25:58.783Z,15
2015-12-21T12:26:58.692Z,15
2015-12-21T12:27:58.648Z,14.6
2015-12-21T12:28:58.589Z,13.9
2015-12-21T12:29:58.533Z,14.4
2015-12-21T12:30:58.489Z,14.9
2015-12-21T12:31:58.446Z,15.2
2015-12-21T12:32:58.386Z,15
2015-12-21T12:33:58.342Z,15.2
2015-12-21T12:34:58.283Z,14.8
2015-12-21T12:35:58.222Z,14.2
2015-12-21T12:36:58.179Z,13.6
2015-12-21T12:37:58.119Z,13.3
2015-12-21T12:38:58.075Z,14.1
2015-12-21T12:39:58.015Z,14
2015-12-21T12:40:57.971Z,14.4
2015-12-21T12:41:57.911Z,14.6
2015-12-21T12:42:57.867Z,14.6
2015-12-21T12:43:57.808Z,15.5
2015-12-21T12:44:57.763Z,16.3
2015-12-21T12:45:57.719Z,16.3
2015-12-21T12:46:57.660Z,16.4
2015-12-21T12:47:57.615Z,15.6
2015-12-21T12:48:57.555Z,16
2015-12-21T12:49:57.512Z,15.3
2015-12-21T12:50:57.452Z,15.4
2015-12-21T12:51:57.408Z,14.4
2015-12-21T12:52:57.364Z,13.6
2015-12-21T12:53:57.304Z,13.1
2015-12-21T12:54:57.244Z,12.9
2015-12-21T12:55:57.200Z,12.6
2015-12-21T12:56:57.140Z,12.6
2015-12-21T12:57:57.096Z,12.5
2015-12-21T12:58:57.036Z,12.6
2015-12-21T12:59:56.992Z,12.4
2015-12-21T13:00:56.948Z,12.3
2015-12-21T13:01:56.886Z,13.3
2015-12-21T13:02:56.825Z,14.2
2015-12-21T13:03:56.782Z,14
2015-12-21T13:04:56.721Z,13.6
2015-12-21T13:05:56.677Z,13.3
2015-12-21T13:06:56.618Z,13.5
2015-12-21T13:07:56.558Z,13.6
2015-12-21T13:08:56.514Z,13.5
2015-12-21T13:09:56.469Z,13.6
2015-12-21T13:10:56.410Z,13.6
2015-12-21T13:11:56.350Z,13.3
2015-12-21T13:12:56.307Z,13.1
2015-12-21T13:13:56.246Z,13.3
2015-12-21T13:14:56.202Z,14
2015-12-21T13:15:56.143Z,14.3
2015-12-21T13:16:56.099Z,14.3
2015-12-21T13:17:56.039Z,14.2
2015-12-21T13:18:55.995Z,15.2
2015-12-21T13:19:55.951Z,16.2
2015-12-21T13:20:55.891Z,15.2
2015-12-21T13:21:55.847Z,13.9
2015-12-21T13:22:55.788Z,13.4
2015-12-21T13:23:55.728Z,13.4
2015-12-21T13:24:55.683Z,13.6
2015-12-21T13:25:55.624Z,13.8
2015-12-21T13:26:55.580Z,13.5
2015-12-21T13:27:55.520Z,13.3
2015-12-21T13:28:55.476Z,13.2
2015-12-21T13:29:55.416Z,13.3
2015-12-21T13:30:55.372Z,13
2015-12-21T13:31:55.312Z,12.5
2015-12-21T13:32:55.268Z,12.3
2015-12-21T13:33:55.208Z,12
2015-12-21T13:34:55.149Z,12
2015-12-21T13:35:55.105Z,12.1
2015-12-21T13:36:55.045Z,11.9